createdAt,value
2022-08-31T00:03:56.360Z,3.28
2022-08-31T00:07:57.795Z,3.13
2022-08-31T00:12:00.030Z,3.58
2022-08-31T00:16:01.727Z,3.08
2022-08-31T00:20:04.980Z,3.28
2022-08-31T00:24:06.505Z,3.22
2022-08-31T00:28:08.782Z,4.22
2022-08-31T00:32:10.331Z,3.17
2022-08-31T00:36:13.848Z,3.75
2022-08-31T00:40:15.855Z,4.50
2022-08-31T00:44:17.465Z,4.45
2022-08-31T00:48:18.954Z,5.13
2022-08-31T00:52:29.379Z,6.68
2022-08-31T00:56:36.089Z,6.75
2022-08-31T01:00:40.545Z,6.85
2022-08-31T01:04:42.303Z,7.70
2022-08-31T01:08:45.393Z,7.45
2022-08-31T01:12:48.117Z,8.20
2022-08-31T01:16:58.510Z,7.40
2022-08-31T01:21:02.866Z,9.02
2022-08-31T01:25:04.918Z,8.40
2022-08-31T01:29:06.905Z,7.95
2022-08-31T01:33:09.457Z,8.93
2022-08-31T01:37:11.928Z,9.15
2022-08-31T01:41:14.941Z,7.47
2022-08-31T01:45:17.435Z,7.97
2022-08-31T01:49:20.727Z,8.13
2022-08-31T01:53:22.233Z,9.95
2022-08-31T01:57:33.442Z,10.15
2022-08-31T02:01:40.831Z,9.15
2022-08-31T02:05:43.394Z,8.90
2022-08-31T02:09:44.798Z,8.68
2022-08-31T02:13:46.303Z,9.25
2022-08-31T02:17:47.839Z,10.20
2022-08-31T02:21:54.190Z,8.23
2022-08-31T02:25:55.870Z,9.73
2022-08-31T02:29:57.444Z,9.15
2022-08-31T02:33:58.938Z,10.65
2022-08-31T02:38:01.055Z,10.10
2022-08-31T02:42:02.552Z,9.13
2022-08-31T02:46:04.266Z,8.52
2022-08-31T02:50:06.894Z,9.63
2022-08-31T02:54:08.743Z,8.70
2022-08-31T02:58:11.925Z,8.75
2022-08-31T03:02:13.916Z,9.15
2022-08-31T03:06:16.230Z,8.85
2022-08-31T03:10:21.182Z,7.38
2022-08-31T03:14:22.605Z,8.55
2022-08-31T03:18:24.097Z,8.52
2022-08-31T03:22:25.529Z,9.02
2022-08-31T03:26:27.797Z,11.63
2022-08-31T03:30:29.947Z,12.63
2022-08-31T03:34:33.024Z,13.13
2022-08-31T03:38:34.576Z,11.65
2022-08-31T03:42:36.327Z,11.90
2022-08-31T03:46:37.819Z,12.73
2022-08-31T03:50:39.403Z,12.38
2022-08-31T03:54:40.860Z,12.43
2022-08-31T03:58:42.433Z,11.23
2022-08-31T04:02:44.063Z,9.55
2022-08-31T04:06:45.545Z,10.02
2022-08-31T04:10:50.062Z,10.80
2022-08-31T04:14:51.482Z,10.18
2022-08-31T04:18:53.047Z,10.15
2022-08-31T04:22:54.746Z,11.68
2022-08-31T04:26:56.172Z,12.23
2022-08-31T04:30:57.642Z,11.88
2022-08-31T04:34:59.605Z,11.13
2022-08-31T04:39:02.850Z,10.70
2022-08-31T04:43:04.536Z,9.35
2022-08-31T04:47:07.467Z,10.10
2022-08-31T04:51:15.405Z,9.30
2022-08-31T04:55:17.694Z,10.05
2022-08-31T04:59:19.258Z,9.70
2022-08-31T05:03:20.754Z,9.32
2022-08-31T05:07:22.509Z,9.18
2022-08-31T05:11:25.450Z,7.95
2022-08-31T05:15:27.618Z,8.00
2022-08-31T05:19:29.038Z,8.25
2022-08-31T05:23:30.506Z,7.70
2022-08-31T05:27:31.925Z,8.32
2022-08-31T05:31:33.540Z,7.30
2022-08-31T05:35:35.420Z,8.20
2022-08-31T05:39:36.905Z,8.45
2022-08-31T05:43:39.279Z,7.93
2022-08-31T05:47:40.951Z,8.27
2022-08-31T05:51:42.419Z,8.20
2022-08-31T05:55:43.829Z,7.95
2022-08-31T05:59:45.353Z,7.43
2022-08-31T06:03:47.268Z,6.95
2022-08-31T06:07:48.832Z,8.10
2022-08-31T06:11:51.385Z,7.53
2022-08-31T06:15:53.493Z,7.55
2022-08-31T06:19:58.067Z,6.72
2022-08-31T06:24:01.529Z,7.43
2022-08-31T06:28:06.768Z,7.68
2022-08-31T06:32:10.278Z,7.55
2022-08-31T06:36:14.067Z,7.25
2022-08-31T06:40:16.285Z,7.90
2022-08-31T06:44:20.917Z,8.38
2022-08-31T06:48:22.315Z,9.27
2022-08-31T06:52:24.190Z,10.93
2022-08-31T06:56:26.067Z,11.23
2022-08-31T07:00:27.493Z,11.70
2022-08-31T07:04:34.786Z,10.40
2022-08-31T07:08:37.376Z,9.73
2022-08-31T07:12:38.875Z,9.98
2022-08-31T07:16:40.655Z,9.77
2022-08-31T07:20:42.240Z,8.85
2022-08-31T07:24:43.865Z,11.27
2022-08-31T07:28:45.344Z,12.90
2022-08-31T07:32:46.931Z,13.25
2022-08-31T07:37:06.755Z,11.95
2022-08-31T07:41:29.908Z,10.32
2022-08-31T07:45:35.598Z,10.45
2022-08-31T07:53:50.487Z,11.43
2022-08-31T07:57:54.801Z,10.15
2022-08-31T08:01:56.700Z,10.48
2022-08-31T08:05:58.269Z,10.18
2022-08-31T08:10:06.963Z,11.82
2022-08-31T08:14:09.374Z,10.90
2022-08-31T08:18:13.342Z,9.02
2022-08-31T08:22:22.459Z,8.95
2022-08-31T08:26:32.224Z,11.23
2022-08-31T08:30:33.902Z,10.13
2022-08-31T08:34:40.813Z,11.10
2022-08-31T08:38:47.236Z,11.07
2022-08-31T08:42:48.729Z,9.60
2022-08-31T08:46:55.277Z,9.13
2022-08-31T08:50:56.915Z,8.93
2022-08-31T08:55:09.540Z,8.77
2022-08-31T08:59:15.974Z,10.07
2022-08-31T09:03:21.370Z,8.70
2022-08-31T09:07:46.608Z,8.60
2022-08-31T09:11:58.316Z,7.80
2022-08-31T09:16:04.732Z,8.48
2022-08-31T09:20:07.807Z,8.70
2022-08-31T09:24:12.901Z,8.15
2022-08-31T09:28:16.368Z,8.30
2022-08-31T09:32:26.379Z,8.13
2022-08-31T09:36:41.009Z,8.07
2022-08-31T09:40:45.469Z,10.18
2022-08-31T09:44:50.435Z,9.82
2022-08-31T09:48:53.415Z,8.02
2022-08-31T09:53:41.847Z,8.93
2022-08-31T09:57:56.334Z,9.50
2022-08-31T10:02:00.618Z,11.20
2022-08-31T10:06:04.373Z,10.52
2022-08-31T10:10:28.250Z,10.07
2022-08-31T10:14:51.246Z,9.90
2022-08-31T10:19:06.793Z,11.85
2022-08-31T10:23:34.930Z,11.50
2022-08-31T10:27:40.893Z,12.50
2022-08-31T10:31:48.656Z,11.75
2022-08-31T10:35:51.726Z,12.95
2022-08-31T10:39:59.005Z,13.57
2022-08-31T10:44:03.466Z,12.07
2022-08-31T10:48:05.151Z,11.15
2022-08-31T10:52:17.204Z,11.75
2022-08-31T10:56:41.502Z,11.95
2022-08-31T11:01:16.397Z,12.07
2022-08-31T11:05:35.295Z,12.95
2022-08-31T11:10:24.571Z,13.90
2022-08-31T11:14:30.969Z,12.45
2022-08-31T11:19:09.250Z,11.68
2022-08-31T11:23:34.978Z,11.55
2022-08-31T11:27:50.176Z,10.50
2022-08-31T11:31:55.114Z,9.23
2022-08-31T11:36:06.341Z,11.02
2022-08-31T11:40:11.619Z,9.63
2022-08-31T11:44:29.739Z,9.65
2022-08-31T11:48:57.714Z,9.90
2022-08-31T11:53:01.190Z,10.48
2022-08-31T11:57:03.393Z,10.05
2022-08-31T12:01:13.038Z,9.45
2022-08-31T12:05:57.943Z,10.55
2022-08-31T12:10:14.919Z,9.95
2022-08-31T12:14:24.657Z,9.87
2022-08-31T12:18:39.545Z,9.77
2022-08-31T12:23:30.140Z,10.73
2022-08-31T12:27:44.138Z,10.57
2022-08-31T12:32:01.387Z,9.82
2022-08-31T12:36:15.549Z,10.40
2022-08-31T12:40:20.509Z,10.80
2022-08-31T12:44:34.468Z,9.43
2022-08-31T12:48:45.102Z,10.35
2022-08-31T12:53:05.104Z,10.13
2022-08-31T12:57:12.595Z,10.00
2022-08-31T13:01:17.524Z,9.73
2022-08-31T13:05:22.377Z,9.68
2022-08-31T13:09:29.046Z,9.38
2022-08-31T13:13:30.560Z,11.43
2022-08-31T13:17:39.607Z,10.55
2022-08-31T13:21:41.464Z,10.07
2022-08-31T13:25:43.255Z,10.95
2022-08-31T13:29:45.736Z,10.13
2022-08-31T13:33:48.451Z,9.25
2022-08-31T13:38:05.033Z,11.50
2022-08-31T13:42:34.137Z,9.23
2022-08-31T13:46:43.218Z,9.77
2022-08-31T13:50:52.931Z,10.90
2022-08-31T13:55:08.191Z,9.45
2022-08-31T13:59:24.438Z,9.30
2022-08-31T14:03:46.593Z,10.07
2022-08-31T14:07:54.907Z,10.18
2022-08-31T14:12:05.463Z,9.48
2022-08-31T14:16:08.187Z,8.73
2022-08-31T14:20:36.113Z,9.40
2022-08-31T14:24:37.626Z,9.07
2022-08-31T14:28:40.784Z,8.85
2022-08-31T14:32:45.778Z,8.90
2022-08-31T14:37:07.706Z,7.93
2022-08-31T14:41:11.534Z,8.77
2022-08-31T14:45:19.179Z,7.88
2022-08-31T14:53:22.122Z,7.47
2022-08-31T14:57:25.635Z,6.72
2022-08-31T15:01:28.074Z,7.22
2022-08-31T15:05:29.568Z,8.23
2022-08-31T15:09:34.718Z,8.38
2022-08-31T15:13:39.448Z,8.23
2022-08-31T15:17:41.081Z,7.82
2022-08-31T15:21:52.717Z,8.93
2022-08-31T15:26:06.637Z,7.97
2022-08-31T15:30:09.540Z,8.02
2022-08-31T15:34:11.303Z,7.15
2022-08-31T15:38:12.810Z,7.28
2022-08-31T15:42:20.783Z,7.90
2022-08-31T15:46:43.644Z,8.48
2022-08-31T15:50:52.714Z,10.95
2022-08-31T15:54:55.209Z,10.18
2022-08-31T15:58:59.954Z,6.80
2022-08-31T16:03:01.501Z,7.25
2022-08-31T16:07:05.197Z,7.35
2022-08-31T16:11:10.436Z,6.93
2022-08-31T16:15:12.994Z,8.07
2022-08-31T16:19:34.028Z,8.23
2022-08-31T16:23:36.007Z,8.57
2022-08-31T16:27:39.827Z,8.50
2022-08-31T16:31:43.474Z,8.38
2022-08-31T16:35:45.738Z,7.80
2022-08-31T16:39:47.264Z,7.60
2022-08-31T16:44:03.483Z,7.13
2022-08-31T16:48:29.962Z,7.38
2022-08-31T16:52:32.525Z,6.35
2022-08-31T16:56:36.677Z,7.55
2022-08-31T17:00:38.137Z,6.95
2022-08-31T17:04:52.005Z,6.75
2022-08-31T17:09:01.788Z,5.80
2022-08-31T17:13:03.375Z,5.80
2022-08-31T17:17:06.570Z,6.35
2022-08-31T17:21:15.034Z,6.00
2022-08-31T17:25:16.676Z,6.13
2022-08-31T17:29:20.673Z,6.03
2022-08-31T17:33:22.860Z,5.88
2022-08-31T17:37:27.818Z,7.10
2022-08-31T17:41:29.392Z,7.03
2022-08-31T17:45:30.852Z,6.40
2022-08-31T17:49:37.870Z,6.50
2022-08-31T17:53:39.839Z,6.75
2022-08-31T17:57:42.368Z,6.35
2022-08-31T18:01:45.536Z,5.75
2022-08-31T18:05:48.006Z,6.53
2022-08-31T18:09:50.744Z,5.78
2022-08-31T18:13:53.747Z,7.22
2022-08-31T18:17:55.873Z,7.28
2022-08-31T18:21:57.369Z,7.05
2022-08-31T18:25:58.827Z,6.93
2022-08-31T18:30:00.805Z,8.85
2022-08-31T18:34:05.807Z,7.43
2022-08-31T18:38:12.467Z,7.90
2022-08-31T18:42:32.588Z,18.15
2022-08-31T18:46:34.757Z,25.67
2022-08-31T18:50:38.569Z,25.85
2022-08-31T18:54:41.085Z,19.00
2022-08-31T18:58:43.566Z,12.27
2022-08-31T19:02:45.872Z,9.88
2022-08-31T19:06:47.417Z,11.40
2022-08-31T19:10:49.158Z,9.88
2022-08-31T19:14:51.162Z,10.10
2022-08-31T19:18:56.148Z,8.82
2022-08-31T19:22:57.587Z,8.07
2022-08-31T19:27:04.719Z,8.80
2022-08-31T19:31:09.577Z,8.85
2022-08-31T19:35:11.894Z,9.23
2022-08-31T19:39:16.410Z,8.10
2022-08-31T19:47:44.575Z,9.68
2022-08-31T19:51:51.891Z,9.13
2022-08-31T19:55:55.035Z,9.77
2022-08-31T19:59:56.609Z,11.52
2022-08-31T20:03:58.244Z,8.88
2022-08-31T20:07:59.710Z,13.05
2022-08-31T20:12:02.313Z,11.25
2022-08-31T20:16:05.028Z,11.75
2022-08-31T20:20:08.834Z,11.48
2022-08-31T20:24:15.009Z,12.50
2022-08-31T20:28:17.636Z,13.77
2022-08-31T20:32:19.796Z,13.00
2022-08-31T20:36:27.841Z,12.32
2022-08-31T20:40:29.575Z,13.93
2022-08-31T20:44:34.993Z,12.90
2022-08-31T20:48:54.861Z,12.70
2022-08-31T20:52:56.919Z,13.23
2022-08-31T20:57:00.465Z,12.35
2022-08-31T21:01:06.953Z,13.77
2022-08-31T21:05:37.073Z,15.23
2022-08-31T21:09:31.825Z,15.15
2022-08-31T21:13:33.284Z,16.48
2022-08-31T21:17:35.364Z,14.20
2022-08-31T21:21:36.899Z,12.75
2022-08-31T21:25:44.012Z,11.25
2022-08-31T21:29:47.157Z,10.25
2022-08-31T21:33:48.630Z,12.95
2022-08-31T21:37:50.118Z,14.23
2022-08-31T21:41:56.521Z,13.02
2022-08-31T21:46:27.993Z,11.52
2022-08-31T21:50:29.594Z,11.90
2022-08-31T21:54:31.050Z,11.80
2022-08-31T21:58:32.615Z,11.15
2022-08-31T22:02:34.083Z,13.27
2022-08-31T22:06:36.757Z,15.20
2022-08-31T22:10:41.032Z,15.18
2022-08-31T22:14:44.723Z,13.82
2022-08-31T22:19:06.730Z,13.85
2022-08-31T22:23:09.299Z,12.60
2022-08-31T22:27:12.057Z,11.98
2022-08-31T22:31:14.818Z,12.40
2022-08-31T22:35:16.967Z,14.75
2022-08-31T22:39:22.244Z,13.27
2022-08-31T22:43:24.041Z,14.57
2022-08-31T22:47:25.505Z,10.77
2022-08-31T22:51:27.480Z,10.98
2022-08-31T22:55:29.024Z,11.55
2022-08-31T22:59:30.748Z,12.77
2022-08-31T23:03:32.198Z,12.07
2022-08-31T23:07:35.226Z,13.18
2022-08-31T23:11:38.157Z,15.73
2022-08-31T23:15:40.232Z,16.92
2022-08-31T23:19:43.743Z,17.20
2022-08-31T23:23:45.809Z,15.05
2022-08-31T23:27:49.110Z,13.55
2022-08-31T23:31:51.857Z,13.63
2022-08-31T23:35:56.076Z,13.73
2022-08-31T23:39:59.182Z,11.88
2022-08-31T23:44:04.780Z,12.40
2022-08-31T23:48:06.336Z,13.65
2022-08-31T23:52:08.588Z,11.65
2022-08-31T23:56:11.554Z,10.18
